首页
METAR-TAF:

METAR-TAF

机场 :

Clines Corners, 新墨西哥州, 美国

纬度: 35-00N, 经度: 105-40W, 海拔: 2160米

当前天气观测

该预报发布于1小时和15分钟前的07:53 UTC
风速10节,风向南转西南
温度 17°C
湿度 59%
气压 1019 hPa
能見度: 16.1公里
天空无云

METAR: KCQC 160753Z AUTO 20010KT 10SM CLR 17/09 A3010 RMK AO2 SLP080 T01670089

时间: 03:08 (09:08 UTC)


TAF: 丢失

超过4000个机场的气象观测和天气预报(METAR&TAF报告)。

可查询的气象台以黄色和红色小点在地图上表示。

将鼠标移到小点上方,可查看气象台名称。

然后点击查看天气观测和预报。

如需切换地图:点击带黑十字的绿色按钮放大地图;点击带横线的绿色按钮缩小地图;或者点击绿色箭头查看邻近地区的地图。


METAR-TAF: